sensor_id;sensor_type;location;lat;lon;timestamp;P1;durP1;ratioP1;P2;durP2;ratioP2
8698;SDS011;4386;51.236;6.742;2022-12-18T00:00:13;15.05;;;10.82;;
8698;SDS011;4386;51.236;6.742;2022-12-18T00:01:17;13.30;;;8.63;;
8698;SDS011;4386;51.236;6.742;2022-12-18T00:02:20;12.45;;;8.38;;
8698;SDS011;4386;51.236;6.742;2022-12-18T00:03:24;12.60;;;8.73;;
8698;SDS011;4386;51.236;6.742;2022-12-18T00:04:26;14.13;;;9.13;;
8698;SDS011;4386;51.236;6.742;2022-12-18T00:05:29;16.90;;;10.50;;
8698;SDS011;4386;51.236;6.742;2022-12-18T00:06:32;14.60;;;8.13;;
8698;SDS011;4386;51.236;6.742;2022-12-18T00:07:35;15.82;;;9.90;;
8698;SDS011;4386;51.236;6.742;2022-12-18T00:08:36;17.48;;;9.02;;
8698;SDS011;4386;51.236;6.742;2022-12-18T00:09:40;15.88;;;8.98;;
8698;SDS011;4386;51.236;6.742;2022-12-18T00:10:42;14.60;;;9.55;;
8698;SDS011;4386;51.236;6.742;2022-12-18T00:11:45;16.30;;;9.68;;
8698;SDS011;4386;51.236;6.742;2022-12-18T00:12:47;15.20;;;9.32;;
8698;SDS011;4386;51.236;6.742;2022-12-18T00:13:49;15.35;;;9.25;;
8698;SDS011;4386;51.236;6.742;2022-12-18T00:14:51;13.95;;;9.30;;
8698;SDS011;4386;51.236;6.742;2022-12-18T00:15:54;14.60;;;9.45;;
8698;SDS011;4386;51.236;6.742;2022-12-18T00:16:57;11.80;;;8.85;;
8698;SDS011;4386;51.236;6.742;2022-12-18T00:18:01;14.45;;;9.15;;
8698;SDS011;4386;51.236;6.742;2022-12-18T00:19:05;16.27;;;9.93;;
8698;SDS011;4386;51.236;6.742;2022-12-18T00:20:08;18.85;;;10.52;;
8698;SDS011;4386;51.236;6.742;2022-12-18T00:21:12;12.95;;;8.75;;
8698;SDS011;4386;51.236;6.742;2022-12-18T00:22:16;15.07;;;9.88;;
8698;SDS011;4386;51.236;6.742;2022-12-18T00:23:19;14.07;;;9.18;;
8698;SDS011;4386;51.236;6.742;2022-12-18T00:24:21;16.80;;;9.93;;
8698;SDS011;4386;51.236;6.742;2022-12-18T00:25:25;15.90;;;9.48;;
8698;SDS011;4386;51.236;6.742;2022-12-18T00:26:27;13.90;;;9.18;;
8698;SDS011;4386;51.236;6.742;2022-12-18T00:27:31;11.98;;;9.63;;
8698;SDS011;4386;51.236;6.742;2022-12-18T00:28:33;13.43;;;8.20;;
8698;SDS011;4386;51.236;6.742;2022-12-18T00:29:36;22.08;;;11.07;;
8698;SDS011;4386;51.236;6.742;2022-12-18T00:30:38;12.82;;;8.93;;
8698;SDS011;4386;51.236;6.742;2022-12-18T00:31:40;14.10;;;9.05;;
8698;SDS011;4386;51.236;6.742;2022-12-18T00:32:44;14.10;;;9.25;;
8698;SDS011;4386;51.236;6.742;2022-12-18T00:33:45;16.42;;;9.75;;
8698;SDS011;4386;51.236;6.742;2022-12-18T00:34:52;12.90;;;8.38;;
8698;SDS011;4386;51.236;6.742;2022-12-18T00:35:59;14.48;;;9.20;;
8698;SDS011;4386;51.236;6.742;2022-12-18T00:37:02;16.02;;;9.50;;
8698;SDS011;4386;51.236;6.742;2022-12-18T00:38:04;14.73;;;9.60;;
8698;SDS011;4386;51.236;6.742;2022-12-18T00:39:07;14.15;;;9.95;;
8698;SDS011;4386;51.236;6.742;2022-12-18T00:40:10;20.48;;;10.10;;
8698;SDS011;4386;51.236;6.742;2022-12-18T00:41:15;12.07;;;7.95;;
8698;SDS011;4386;51.236;6.742;2022-12-18T00:42:40;16.02;;;9.80;;
8698;SDS011;4386;51.236;6.742;2022-12-18T00:43:56;14.63;;;8.93;;
8698;SDS011;4386;51.236;6.742;2022-12-18T00:44:58;18.20;;;10.02;;
8698;SDS011;4386;51.236;6.742;2022-12-18T00:45:59;15.05;;;9.50;;
8698;SDS011;4386;51.236;6.742;2022-12-18T00:47:02;15.07;;;10.15;;
8698;SDS011;4386;51.236;6.742;2022-12-18T00:48:04;11.80;;;8.98;;
8698;SDS011;4386;51.236;6.742;2022-12-18T00:49:07;13.85;;;9.40;;
8698;SDS011;4386;51.236;6.742;2022-12-18T00:50:09;13.43;;;9.10;;
8698;SDS011;4386;51.236;6.742;2022-12-18T00:51:12;15.38;;;9.00;;
8698;SDS011;4386;51.236;6.742;2022-12-18T00:52:13;18.38;;;9.40;;
8698;SDS011;4386;51.236;6.742;2022-12-18T00:53:16;16.63;;;9.88;;
8698;SDS011;4386;51.236;6.742;2022-12-18T00:54:18;13.50;;;8.70;;
8698;SDS011;4386;51.236;6.742;2022-12-18T00:55:20;18.02;;;9.25;;
8698;SDS011;4386;51.236;6.742;2022-12-18T00:56:23;14.82;;;9.27;;
8698;SDS011;4386;51.236;6.742;2022-12-18T00:57:26;13.00;;;9.40;;
8698;SDS011;4386;51.236;6.742;2022-12-18T00:58:28;14.80;;;8.82;;
8698;SDS011;4386;51.236;6.742;2022-12-18T00:59:30;13.82;;;8.63;;
8698;SDS011;4386;51.236;6.742;2022-12-18T01:00:32;15.93;;;9.80;;
8698;SDS011;4386;51.236;6.742;2022-12-18T01:01:35;13.57;;;8.15;;
8698;SDS011;4386;51.236;6.742;2022-12-18T01:02:36;17.20;;;9.95;;
8698;SDS011;4386;51.236;6.742;2022-12-18T01:03:40;15.80;;;10.05;;
8698;SDS011;4386;51.236;6.742;2022-12-18T01:04:42;16.75;;;10.48;;
8698;SDS011;4386;51.236;6.742;2022-12-18T01:05:45;17.52;;;9.85;;
8698;SDS011;4386;51.236;6.742;2022-12-18T01:06:47;16.23;;;9.63;;
8698;SDS011;4386;51.236;6.742;2022-12-18T01:07:49;21.27;;;9.90;;
8698;SDS011;4386;51.236;6.742;2022-12-18T01:08:51;17.38;;;8.98;;
8698;SDS011;4386;51.236;6.742;2022-12-18T01:09:53;12.90;;;8.48;;
8698;SDS011;4386;51.236;6.742;2022-12-18T01:10:55;14.20;;;9.07;;
8698;SDS011;4386;51.236;6.742;2022-12-18T01:11:59;13.93;;;9.48;;
8698;SDS011;4386;51.236;6.742;2022-12-18T01:13:00;13.98;;;9.18;;
8698;SDS011;4386;51.236;6.742;2022-12-18T01:14:03;14.00;;;8.50;;
8698;SDS011;4386;51.236;6.742;2022-12-18T01:15:05;14.30;;;9.75;;
8698;SDS011;4386;51.236;6.742;2022-12-18T01:16:11;14.02;;;9.50;;
8698;SDS011;4386;51.236;6.742;2022-12-18T01:17:13;13.55;;;8.80;;
8698;SDS011;4386;51.236;6.742;2022-12-18T01:18:16;19.08;;;9.55;;
8698;SDS011;4386;51.236;6.742;2022-12-18T01:19:18;14.73;;;8.60;;
8698;SDS011;4386;51.236;6.742;2022-12-18T01:20:20;19.27;;;9.68;;
8698;SDS011;4386;51.236;6.742;2022-12-18T01:21:22;13.55;;;8.77;;
8698;SDS011;4386;51.236;6.742;2022-12-18T01:22:25;17.23;;;9.27;;
8698;SDS011;4386;51.236;6.742;2022-12-18T01:23:27;13.23;;;9.63;;
8698;SDS011;4386;51.236;6.742;2022-12-18T01:24:29;15.75;;;9.45;;
8698;SDS011;4386;51.236;6.742;2022-12-18T01:25:31;13.90;;;8.80;;
8698;SDS011;4386;51.236;6.742;2022-12-18T01:26:33;15.45;;;8.90;;
8698;SDS011;4386;51.236;6.742;2022-12-18T01:27:36;13.43;;;9.02;;
8698;SDS011;4386;51.236;6.742;2022-12-18T01:28:39;15.10;;;9.60;;
8698;SDS011;4386;51.236;6.742;2022-12-18T01:29:41;12.93;;;8.98;;
8698;SDS011;4386;51.236;6.742;2022-12-18T01:30:44;12.77;;;9.57;;
8698;SDS011;4386;51.236;6.742;2022-12-18T01:34:08;13.55;;;9.30;;
8698;SDS011;4386;51.236;6.742;2022-12-18T01:35:11;15.73;;;9.73;;
8698;SDS011;4386;51.236;6.742;2022-12-18T01:36:16;12.43;;;8.82;;
8698;SDS011;4386;51.236;6.742;2022-12-18T01:37:20;14.45;;;9.23;;
8698;SDS011;4386;51.236;6.742;2022-12-18T01:38:23;19.60;;;9.35;;
8698;SDS011;4386;51.236;6.742;2022-12-18T01:39:35;13.27;;;8.48;;
8698;SDS011;4386;51.236;6.742;2022-12-18T01:40:38;16.98;;;10.00;;
8698;SDS011;4386;51.236;6.742;2022-12-18T01:41:40;14.82;;;9.40;;
8698;SDS011;4386;51.236;6.742;2022-12-18T01:43:11;16.83;;;9.02;;
8698;SDS011;4386;51.236;6.742;2022-12-18T01:45:54;13.05;;;8.98;;
8698;SDS011;4386;51.236;6.742;2022-12-18T01:46:56;13.18;;;8.30;;
8698;SDS011;4386;51.236;6.742;2022-12-18T01:47:59;16.25;;;9.25;;
8698;SDS011;4386;51.236;6.742;2022-12-18T01:49:03;15.40;;;9.25;;
8698;SDS011;4386;51.236;6.742;2022-12-18T01:50:07;15.32;;;9.63;;
8698;SDS011;4386;51.236;6.742;2022-12-18T01:51:12;11.50;;;8.80;;
8698;SDS011;4386;51.236;6.742;2022-12-18T01:52:14;16.65;;;9.80;;
8698;SDS011;4386;51.236;6.742;2022-12-18T01:53:18;12.48;;;9.27;;
8698;SDS011;4386;51.236;6.742;2022-12-18T01:54:23;15.50;;;9.27;;
8698;SDS011;4386;51.236;6.742;2022-12-18T01:55:28;17.48;;;9.60;;
8698;SDS011;4386;51.236;6.742;2022-12-18T01:56:32;17.67;;;9.07;;
8698;SDS011;4386;51.236;6.742;2022-12-18T01:57:34;14.73;;;8.70;;
8698;SDS011;4386;51.236;6.742;2022-12-18T01:58:40;15.90;;;9.30;;
8698;SDS011;4386;51.236;6.742;2022-12-18T01:59:49;17.25;;;10.15;;
8698;SDS011;4386;51.236;6.742;2022-12-18T02:00:54;13.23;;;8.88;;
8698;SDS011;4386;51.236;6.742;2022-12-18T02:01:56;15.32;;;10.38;;
8698;SDS011;4386;51.236;6.742;2022-12-18T02:02:59;15.30;;;9.20;;
8698;SDS011;4386;51.236;6.742;2022-12-18T02:04:14;14.15;;;9.77;;
8698;SDS011;4386;51.236;6.742;2022-12-18T02:05:23;13.88;;;8.70;;
8698;SDS011;4386;51.236;6.742;2022-12-18T02:06:39;14.85;;;9.75;;
8698;SDS011;4386;51.236;6.742;2022-12-18T02:07:43;18.35;;;10.32;;
8698;SDS011;4386;51.236;6.742;2022-12-18T02:08:55;16.17;;;9.32;;
8698;SDS011;4386;51.236;6.742;2022-12-18T02:10:05;12.50;;;8.55;;
8698;SDS011;4386;51.236;6.742;2022-12-18T02:11:14;13.52;;;9.23;;
8698;SDS011;4386;51.236;6.742;2022-12-18T02:12:23;16.95;;;9.38;;
8698;SDS011;4386;51.236;6.742;2022-12-18T02:13:32;13.82;;;9.52;;
8698;SDS011;4386;51.236;6.742;2022-12-18T02:14:44;14.45;;;9.02;;
8698;SDS011;4386;51.236;6.742;2022-12-18T02:15:54;15.70;;;10.25;;
8698;SDS011;4386;51.236;6.742;2022-12-18T02:17:03;11.70;;;9.63;;
8698;SDS011;4386;51.236;6.742;2022-12-18T02:18:10;15.00;;;10.35;;
8698;SDS011;4386;51.236;6.742;2022-12-18T02:19:21;15.70;;;9.23;;
8698;SDS011;4386;51.236;6.742;2022-12-18T02:20:44;15.65;;;8.68;;
8698;SDS011;4386;51.236;6.742;2022-12-18T02:21:51;17.65;;;9.10;;
8698;SDS011;4386;51.236;6.742;2022-12-18T02:23:06;15.30;;;9.63;;
8698;SDS011;4386;51.236;6.742;2022-12-18T02:24:24;16.88;;;9.35;;
8698;SDS011;4386;51.236;6.742;2022-12-18T02:25:40;13.60;;;9.15;;
8698;SDS011;4386;51.236;6.742;2022-12-18T02:27:05;12.70;;;9.10;;
8698;SDS011;4386;51.236;6.742;2022-12-18T02:28:11;13.95;;;9.18;;
8698;SDS011;4386;51.236;6.742;2022-12-18T02:29:16;13.95;;;10.27;;
8698;SDS011;4386;51.236;6.742;2022-12-18T02:30:23;13.95;;;9.75;;
8698;SDS011;4386;51.236;6.742;2022-12-18T02:31:35;12.82;;;9.20;;
8698;SDS011;4386;51.236;6.742;2022-12-18T02:32:43;15.15;;;9.57;;
8698;SDS011;4386;51.236;6.742;2022-12-18T02:33:52;19.40;;;10.25;;
8698;SDS011;4386;51.236;6.742;2022-12-18T02:34:58;17.55;;;10.55;;
8698;SDS011;4386;51.236;6.742;2022-12-18T02:36:03;15.38;;;10.00;;
8698;SDS011;4386;51.236;6.742;2022-12-18T02:37:09;14.27;;;9.60;;
8698;SDS011;4386;51.236;6.742;2022-12-18T02:38:13;13.15;;;9.10;;
8698;SDS011;4386;51.236;6.742;2022-12-18T02:39:17;17.73;;;10.23;;
8698;SDS011;4386;51.236;6.742;2022-12-18T02:40:23;14.48;;;9.10;;
8698;SDS011;4386;51.236;6.742;2022-12-18T02:41:29;12.18;;;8.82;;
8698;SDS011;4386;51.236;6.742;2022-12-18T02:42:32;14.57;;;9.02;;
8698;SDS011;4386;51.236;6.742;2022-12-18T02:43:34;13.43;;;9.57;;
8698;SDS011;4386;51.236;6.742;2022-12-18T02:44:41;14.50;;;9.52;;
8698;SDS011;4386;51.236;6.742;2022-12-18T02:45:48;13.57;;;9.20;;
8698;SDS011;4386;51.236;6.742;2022-12-18T02:46:52;15.25;;;9.68;;
8698;SDS011;4386;51.236;6.742;2022-12-18T02:47:55;12.95;;;9.15;;
8698;SDS011;4386;51.236;6.742;2022-12-18T02:49:12;12.82;;;9.55;;
8698;SDS011;4386;51.236;6.742;2022-12-18T02:50:26;14.00;;;8.50;;
8698;SDS011;4386;51.236;6.742;2022-12-18T02:51:37;12.45;;;9.10;;
8698;SDS011;4386;51.236;6.742;2022-12-18T02:52:52;14.20;;;8.57;;
8698;SDS011;4386;51.236;6.742;2022-12-18T02:54:03;14.68;;;9.38;;
8698;SDS011;4386;51.236;6.742;2022-12-18T02:55:14;13.68;;;8.88;;
8698;SDS011;4386;51.236;6.742;2022-12-18T02:56:23;14.52;;;9.40;;
8698;SDS011;4386;51.236;6.742;2022-12-18T02:57:33;13.07;;;9.38;;
8698;SDS011;4386;51.236;6.742;2022-12-18T02:58:40;12.00;;;8.50;;
8698;SDS011;4386;51.236;6.742;2022-12-18T02:59:50;14.65;;;8.50;;
8698;SDS011;4386;51.236;6.742;2022-12-18T03:01:03;14.35;;;9.50;;
8698;SDS011;4386;51.236;6.742;2022-12-18T03:02:15;12.07;;;8.15;;
8698;SDS011;4386;51.236;6.742;2022-12-18T03:03:24;13.45;;;8.25;;
8698;SDS011;4386;51.236;6.742;2022-12-18T03:04:32;15.57;;;8.93;;
8698;SDS011;4386;51.236;6.742;2022-12-18T03:05:40;15.95;;;9.75;;
8698;SDS011;4386;51.236;6.742;2022-12-18T03:06:46;13.77;;;9.57;;
8698;SDS011;4386;51.236;6.742;2022-12-18T03:07:53;12.15;;;8.23;;
8698;SDS011;4386;51.236;6.742;2022-12-18T03:09:04;16.17;;;9.57;;
8698;SDS011;4386;51.236;6.742;2022-12-18T03:10:11;11.90;;;8.65;;
8698;SDS011;4386;51.236;6.742;2022-12-18T03:11:19;13.90;;;8.70;;
8698;SDS011;4386;51.236;6.742;2022-12-18T03:12:53;13.38;;;8.88;;
8698;SDS011;4386;51.236;6.742;2022-12-18T03:14:03;13.65;;;8.57;;
8698;SDS011;4386;51.236;6.742;2022-12-18T03:15:08;11.98;;;8.85;;
8698;SDS011;4386;51.236;6.742;2022-12-18T03:16:19;14.32;;;9.75;;
8698;SDS011;4386;51.236;6.742;2022-12-18T03:17:26;14.07;;;8.70;;
8698;SDS011;4386;51.236;6.742;2022-12-18T03:18:32;12.93;;;8.60;;
8698;SDS011;4386;51.236;6.742;2022-12-18T03:19:37;13.02;;;8.82;;
8698;SDS011;4386;51.236;6.742;2022-12-18T03:20:41;12.68;;;8.98;;
8698;SDS011;4386;51.236;6.742;2022-12-18T03:21:45;13.77;;;8.48;;
8698;SDS011;4386;51.236;6.742;2022-12-18T03:22:53;12.40;;;8.90;;
8698;SDS011;4386;51.236;6.742;2022-12-18T03:23:59;14.00;;;7.80;;
8698;SDS011;4386;51.236;6.742;2022-12-18T03:25:03;15.13;;;10.27;;
8698;SDS011;4386;51.236;6.742;2022-12-18T03:26:08;13.38;;;8.38;;
8698;SDS011;4386;51.236;6.742;2022-12-18T03:27:13;13.00;;;9.60;;
8698;SDS011;4386;51.236;6.742;2022-12-18T03:28:20;14.57;;;9.40;;
8698;SDS011;4386;51.236;6.742;2022-12-18T03:29:25;13.00;;;8.70;;
8698;SDS011;4386;51.236;6.742;2022-12-18T03:30:31;12.05;;;8.90;;
8698;SDS011;4386;51.236;6.742;2022-12-18T03:31:36;16.55;;;8.35;;
8698;SDS011;4386;51.236;6.742;2022-12-18T03:32:42;17.42;;;9.52;;
8698;SDS011;4386;51.236;6.742;2022-12-18T03:33:51;11.85;;;8.10;;
8698;SDS011;4386;51.236;6.742;2022-12-18T03:34:56;14.15;;;8.48;;
8698;SDS011;4386;51.236;6.742;2022-12-18T03:36:03;13.73;;;9.05;;
8698;SDS011;4386;51.236;6.742;2022-12-18T03:37:06;13.00;;;8.88;;
8698;SDS011;4386;51.236;6.742;2022-12-18T03:38:09;14.30;;;8.95;;
8698;SDS011;4386;51.236;6.742;2022-12-18T03:39:11;11.05;;;8.73;;
8698;SDS011;4386;51.236;6.742;2022-12-18T03:40:14;11.90;;;8.77;;
8698;SDS011;4386;51.236;6.742;2022-12-18T03:41:17;12.48;;;8.27;;
8698;SDS011;4386;51.236;6.742;2022-12-18T03:42:26;14.48;;;9.30;;
8698;SDS011;4386;51.236;6.742;2022-12-18T03:43:36;10.10;;;8.32;;
8698;SDS011;4386;51.236;6.742;2022-12-18T03:44:48;11.90;;;7.82;;
8698;SDS011;4386;51.236;6.742;2022-12-18T03:46:02;13.40;;;8.70;;
8698;SDS011;4386;51.236;6.742;2022-12-18T03:47:11;12.55;;;7.78;;
8698;SDS011;4386;51.236;6.742;2022-12-18T03:48:17;14.95;;;9.65;;
8698;SDS011;4386;51.236;6.742;2022-12-18T03:49:32;14.88;;;9.02;;
8698;SDS011;4386;51.236;6.742;2022-12-18T03:50:48;10.20;;;7.65;;
8698;SDS011;4386;51.236;6.742;2022-12-18T03:52:01;12.57;;;8.10;;
8698;SDS011;4386;51.236;6.742;2022-12-18T03:53:08;16.60;;;9.70;;
8698;SDS011;4386;51.236;6.742;2022-12-18T03:54:19;12.05;;;8.82;;
8698;SDS011;4386;51.236;6.742;2022-12-18T03:55:22;14.82;;;8.77;;
8698;SDS011;4386;51.236;6.742;2022-12-18T03:56:28;12.88;;;8.35;;
8698;SDS011;4386;51.236;6.742;2022-12-18T03:57:32;11.05;;;7.63;;
8698;SDS011;4386;51.236;6.742;2022-12-18T03:58:36;13.05;;;8.85;;
8698;SDS011;4386;51.236;6.742;2022-12-18T03:59:53;13.20;;;7.70;;
8698;SDS011;4386;51.236;6.742;2022-12-18T04:01:00;12.85;;;8.20;;
8698;SDS011;4386;51.236;6.742;2022-12-18T04:02:04;13.57;;;7.38;;
8698;SDS011;4386;51.236;6.742;2022-12-18T04:03:09;12.02;;;8.65;;
8698;SDS011;4386;51.236;6.742;2022-12-18T04:04:12;10.85;;;7.90;;
8698;SDS011;4386;51.236;6.742;2022-12-18T04:05:16;13.63;;;7.93;;
8698;SDS011;4386;51.236;6.742;2022-12-18T04:06:19;11.90;;;8.27;;
8698;SDS011;4386;51.236;6.742;2022-12-18T04:07:23;11.80;;;8.10;;
8698;SDS011;4386;51.236;6.742;2022-12-18T04:08:25;12.27;;;7.60;;
8698;SDS011;4386;51.236;6.742;2022-12-18T04:09:28;16.70;;;10.02;;
8698;SDS011;4386;51.236;6.742;2022-12-18T04:10:32;10.73;;;7.68;;
8698;SDS011;4386;51.236;6.742;2022-12-18T04:11:35;15.63;;;8.85;;
8698;SDS011;4386;51.236;6.742;2022-12-18T04:12:37;11.38;;;7.40;;
8698;SDS011;4386;51.236;6.742;2022-12-18T04:13:42;12.50;;;8.70;;
8698;SDS011;4386;51.236;6.742;2022-12-18T04:14:44;12.30;;;8.07;;
8698;SDS011;4386;51.236;6.742;2022-12-18T04:15:47;12.32;;;8.40;;
8698;SDS011;4386;51.236;6.742;2022-12-18T04:16:48;10.73;;;7.85;;
8698;SDS011;4386;51.236;6.742;2022-12-18T04:17:51;10.63;;;7.95;;
8698;SDS011;4386;51.236;6.742;2022-12-18T04:18:53;9.40;;;7.53;;
8698;SDS011;4386;51.236;6.742;2022-12-18T04:19:55;10.73;;;7.90;;
8698;SDS011;4386;51.236;6.742;2022-12-18T04:20:57;11.73;;;7.35;;
8698;SDS011;4386;51.236;6.742;2022-12-18T04:21:59;10.90;;;7.10;;
8698;SDS011;4386;51.236;6.742;2022-12-18T04:23:01;12.20;;;7.82;;
8698;SDS011;4386;51.236;6.742;2022-12-18T04:24:04;11.45;;;7.45;;
8698;SDS011;4386;51.236;6.742;2022-12-18T04:25:06;10.18;;;6.82;;
8698;SDS011;4386;51.236;6.742;2022-12-18T04:26:09;11.70;;;7.38;;
8698;SDS011;4386;51.236;6.742;2022-12-18T04:27:11;14.43;;;7.50;;
8698;SDS011;4386;51.236;6.742;2022-12-18T04:28:13;11.90;;;7.38;;
8698;SDS011;4386;51.236;6.742;2022-12-18T04:29:16;13.57;;;8.23;;
8698;SDS011;4386;51.236;6.742;2022-12-18T04:30:19;12.45;;;8.52;;
8698;SDS011;4386;51.236;6.742;2022-12-18T04:31:20;12.88;;;7.78;;
8698;SDS011;4386;51.236;6.742;2022-12-18T04:32:23;13.27;;;7.80;;
8698;SDS011;4386;51.236;6.742;2022-12-18T04:33:25;12.35;;;7.15;;
8698;SDS011;4386;51.236;6.742;2022-12-18T04:34:28;11.95;;;7.68;;
8698;SDS011;4386;51.236;6.742;2022-12-18T04:35:32;11.60;;;6.93;;
8698;SDS011;4386;51.236;6.742;2022-12-18T04:36:34;11.45;;;7.03;;
8698;SDS011;4386;51.236;6.742;2022-12-18T04:37:36;14.32;;;8.52;;
8698;SDS011;4386;51.236;6.742;2022-12-18T04:38:38;11.15;;;6.85;;
8698;SDS011;4386;51.236;6.742;2022-12-18T04:39:47;9.80;;;6.65;;
8698;SDS011;4386;51.236;6.742;2022-12-18T04:40:59;9.05;;;6.30;;
8698;SDS011;4386;51.236;6.742;2022-12-18T04:42:01;9.25;;;6.65;;
8698;SDS011;4386;51.236;6.742;2022-12-18T04:43:03;10.63;;;6.65;;
8698;SDS011;4386;51.236;6.742;2022-12-18T04:44:05;11.70;;;7.10;;
8698;SDS011;4386;51.236;6.742;2022-12-18T04:45:09;10.50;;;7.30;;
8698;SDS011;4386;51.236;6.742;2022-12-18T04:46:12;11.23;;;7.95;;
8698;SDS011;4386;51.236;6.742;2022-12-18T04:47:17;9.90;;;7.45;;
8698;SDS011;4386;51.236;6.742;2022-12-18T04:48:20;14.30;;;7.90;;
8698;SDS011;4386;51.236;6.742;2022-12-18T04:49:21;10.05;;;6.32;;
8698;SDS011;4386;51.236;6.742;2022-12-18T04:50:24;9.32;;;6.88;;
8698;SDS011;4386;51.236;6.742;2022-12-18T04:51:25;9.05;;;6.55;;
8698;SDS011;4386;51.236;6.742;2022-12-18T04:52:28;12.98;;;6.45;;
8698;SDS011;4386;51.236;6.742;2022-12-18T04:53:29;10.43;;;6.80;;
8698;SDS011;4386;51.236;6.742;2022-12-18T04:54:32;9.70;;;6.53;;
8698;SDS011;4386;51.236;6.742;2022-12-18T04:55:34;13.70;;;6.72;;
8698;SDS011;4386;51.236;6.742;2022-12-18T04:56:37;11.85;;;7.00;;
8698;SDS011;4386;51.236;6.742;2022-12-18T04:57:38;9.85;;;6.70;;
8698;SDS011;4386;51.236;6.742;2022-12-18T04:58:42;13.10;;;7.20;;
8698;SDS011;4386;51.236;6.742;2022-12-18T04:59:45;13.68;;;6.82;;
8698;SDS011;4386;51.236;6.742;2022-12-18T05:00:49;9.23;;;6.57;;
8698;SDS011;4386;51.236;6.742;2022-12-18T05:01:50;9.30;;;6.63;;
8698;SDS011;4386;51.236;6.742;2022-12-18T05:02:53;10.75;;;6.55;;
8698;SDS011;4386;51.236;6.742;2022-12-18T05:03:55;8.60;;;6.10;;
8698;SDS011;4386;51.236;6.742;2022-12-18T05:04:57;14.05;;;7.20;;
8698;SDS011;4386;51.236;6.742;2022-12-18T05:08:03;13.32;;;7.35;;
8698;SDS011;4386;51.236;6.742;2022-12-18T05:09:06;24.55;;;7.80;;
8698;SDS011;4386;51.236;6.742;2022-12-18T05:10:07;10.68;;;6.65;;
8698;SDS011;4386;51.236;6.742;2022-12-18T05:11:11;9.10;;;6.72;;
8698;SDS011;4386;51.236;6.742;2022-12-18T05:12:15;10.43;;;6.90;;
8698;SDS011;4386;51.236;6.742;2022-12-18T05:13:17;14.80;;;7.03;;
8698;SDS011;4386;51.236;6.742;2022-12-18T05:14:20;8.18;;;6.40;;
8698;SDS011;4386;51.236;6.742;2022-12-18T05:15:29;9.63;;;6.32;;
8698;SDS011;4386;51.236;6.742;2022-12-18T05:16:37;10.63;;;6.85;;
8698;SDS011;4386;51.236;6.742;2022-12-18T05:17:39;8.55;;;6.55;;
8698;SDS011;4386;51.236;6.742;2022-12-18T05:18:42;8.90;;;6.10;;
8698;SDS011;4386;51.236;6.742;2022-12-18T05:19:46;9.38;;;6.72;;
8698;SDS011;4386;51.236;6.742;2022-12-18T05:20:58;11.13;;;7.22;;
8698;SDS011;4386;51.236;6.742;2022-12-18T05:22:01;9.23;;;6.60;;
8698;SDS011;4386;51.236;6.742;2022-12-18T05:23:03;10.48;;;6.80;;
8698;SDS011;4386;51.236;6.742;2022-12-18T05:24:05;12.60;;;7.72;;
8698;SDS011;4386;51.236;6.742;2022-12-18T05:25:08;8.38;;;6.32;;
8698;SDS011;4386;51.236;6.742;2022-12-18T05:26:13;13.43;;;7.95;;
8698;SDS011;4386;51.236;6.742;2022-12-18T05:27:16;8.90;;;6.30;;
8698;SDS011;4386;51.236;6.742;2022-12-18T05:28:20;10.50;;;6.75;;
8698;SDS011;4386;51.236;6.742;2022-12-18T05:29:22;10.98;;;7.65;;
8698;SDS011;4386;51.236;6.742;2022-12-18T05:30:25;9.82;;;6.85;;
8698;SDS011;4386;51.236;6.742;2022-12-18T05:31:26;13.90;;;7.07;;
8698;SDS011;4386;51.236;6.742;2022-12-18T05:32:33;11.63;;;5.80;;
8698;SDS011;4386;51.236;6.742;2022-12-18T05:33:35;9.48;;;6.55;;
8698;SDS011;4386;51.236;6.742;2022-12-18T05:34:38;8.57;;;6.45;;
8698;SDS011;4386;51.236;6.742;2022-12-18T05:35:40;12.25;;;7.25;;
8698;SDS011;4386;51.236;6.742;2022-12-18T05:36:43;12.48;;;7.15;;
8698;SDS011;4386;51.236;6.742;2022-12-18T05:37:44;8.68;;;6.45;;
8698;SDS011;4386;51.236;6.742;2022-12-18T05:38:47;9.60;;;6.65;;
8698;SDS011;4386;51.236;6.742;2022-12-18T05:39:48;11.13;;;6.57;;
8698;SDS011;4386;51.236;6.742;2022-12-18T05:40:51;10.93;;;6.65;;
8698;SDS011;4386;51.236;6.742;2022-12-18T05:41:54;10.73;;;7.70;;
8698;SDS011;4386;51.236;6.742;2022-12-18T05:42:56;10.27;;;7.00;;
8698;SDS011;4386;51.236;6.742;2022-12-18T05:43:58;12.63;;;6.75;;
8698;SDS011;4386;51.236;6.742;2022-12-18T05:45:01;10.55;;;6.80;;
8698;SDS011;4386;51.236;6.742;2022-12-18T05:46:03;11.70;;;7.03;;
8698;SDS011;4386;51.236;6.742;2022-12-18T05:47:07;11.90;;;5.88;;
8698;SDS011;4386;51.236;6.742;2022-12-18T05:48:09;10.45;;;6.40;;
8698;SDS011;4386;51.236;6.742;2022-12-18T05:49:13;9.65;;;6.47;;
8698;SDS011;4386;51.236;6.742;2022-12-18T05:50:14;11.38;;;6.47;;
8698;SDS011;4386;51.236;6.742;2022-12-18T05:51:18;11.65;;;6.55;;
8698;SDS011;4386;51.236;6.742;2022-12-18T05:52:21;10.57;;;6.10;;
8698;SDS011;4386;51.236;6.742;2022-12-18T05:53:24;13.82;;;7.68;;
8698;SDS011;4386;51.236;6.742;2022-12-18T05:54:26;11.43;;;7.55;;
8698;SDS011;4386;51.236;6.742;2022-12-18T05:55:29;13.02;;;7.18;;
8698;SDS011;4386;51.236;6.742;2022-12-18T05:56:34;16.33;;;7.85;;
8698;SDS011;4386;51.236;6.742;2022-12-18T05:57:37;11.30;;;7.43;;
8698;SDS011;4386;51.236;6.742;2022-12-18T05:58:40;10.50;;;6.65;;
8698;SDS011;4386;51.236;6.742;2022-12-18T05:59:53;12.82;;;7.25;;
8698;SDS011;4386;51.236;6.742;2022-12-18T06:01:05;13.93;;;8.10;;
8698;SDS011;4386;51.236;6.742;2022-12-18T06:02:09;13.60;;;8.10;;
8698;SDS011;4386;51.236;6.742;2022-12-18T06:03:13;16.45;;;8.23;;
8698;SDS011;4386;51.236;6.742;2022-12-18T06:04:16;15.30;;;7.88;;
8698;SDS011;4386;51.236;6.742;2022-12-18T06:05:17;16.58;;;7.93;;
8698;SDS011;4386;51.236;6.742;2022-12-18T06:06:21;10.20;;;6.65;;
8698;SDS011;4386;51.236;6.742;2022-12-18T06:07:24;11.88;;;7.95;;
8698;SDS011;4386;51.236;6.742;2022-12-18T06:08:26;13.15;;;7.53;;
8698;SDS011;4386;51.236;6.742;2022-12-18T06:09:28;14.68;;;7.68;;
8698;SDS011;4386;51.236;6.742;2022-12-18T06:10:31;10.25;;;6.45;;
8698;SDS011;4386;51.236;6.742;2022-12-18T06:11:34;10.40;;;6.68;;
8698;SDS011;4386;51.236;6.742;2022-12-18T06:12:37;9.60;;;6.55;;
8698;SDS011;4386;51.236;6.742;2022-12-18T06:13:39;11.52;;;7.20;;
8698;SDS011;4386;51.236;6.742;2022-12-18T06:14:42;14.95;;;8.50;;
8698;SDS011;4386;51.236;6.742;2022-12-18T06:15:43;10.82;;;6.60;;
8698;SDS011;4386;51.236;6.742;2022-12-18T06:16:46;8.73;;;6.55;;
8698;SDS011;4386;51.236;6.742;2022-12-18T06:17:47;9.25;;;6.32;;
8698;SDS011;4386;51.236;6.742;2022-12-18T06:18:51;10.60;;;7.18;;
8698;SDS011;4386;51.236;6.742;2022-12-18T06:19:53;15.77;;;6.75;;
8698;SDS011;4386;51.236;6.742;2022-12-18T06:20:55;11.43;;;7.07;;
8698;SDS011;4386;51.236;6.742;2022-12-18T06:21:57;9.45;;;5.75;;
8698;SDS011;4386;51.236;6.742;2022-12-18T06:23:00;9.82;;;6.82;;
8698;SDS011;4386;51.236;6.742;2022-12-18T06:24:01;10.20;;;7.13;;
8698;SDS011;4386;51.236;6.742;2022-12-18T06:25:04;11.20;;;7.13;;
8698;SDS011;4386;51.236;6.742;2022-12-18T06:26:09;11.82;;;7.30;;
8698;SDS011;4386;51.236;6.742;2022-12-18T06:27:13;11.00;;;7.47;;
8698;SDS011;4386;51.236;6.742;2022-12-18T06:28:15;12.23;;;7.50;;
8698;SDS011;4386;51.236;6.742;2022-12-18T06:29:17;10.95;;;7.35;;
8698;SDS011;4386;51.236;6.742;2022-12-18T06:30:19;10.57;;;7.22;;
8698;SDS011;4386;51.236;6.742;2022-12-18T06:31:22;10.43;;;6.93;;
8698;SDS011;4386;51.236;6.742;2022-12-18T06:32:23;11.63;;;6.53;;
8698;SDS011;4386;51.236;6.742;2022-12-18T06:33:26;10.88;;;7.05;;
8698;SDS011;4386;51.236;6.742;2022-12-18T06:34:31;11.48;;;6.97;;
8698;SDS011;4386;51.236;6.742;2022-12-18T06:35:35;11.23;;;6.15;;
8698;SDS011;4386;51.236;6.742;2022-12-18T06:36:36;11.95;;;8.32;;
8698;SDS011;4386;51.236;6.742;2022-12-18T06:37:39;10.25;;;6.55;;
8698;SDS011;4386;51.236;6.742;2022-12-18T06:38:41;11.50;;;7.93;;
8698;SDS011;4386;51.236;6.742;2022-12-18T06:39:47;10.73;;;6.85;;
8698;SDS011;4386;51.236;6.742;2022-12-18T06:40:55;13.85;;;7.57;;
8698;SDS011;4386;51.236;6.742;2022-12-18T06:41:57;13.05;;;7.22;;
8698;SDS011;4386;51.236;6.742;2022-12-18T06:42:59;11.50;;;6.57;;